Fort Lauderdale, FL (33330)

12:50 PM EST on January 21, 2017 (GMT -0500)
| | Change Station
Active Advisory: Small Craft Advisory

Elev -9999 ft 0.00 °N, 0.00 °E | Updated 12 minutes ago

Overcast
Overcast
°F
Feels Like °F
N
Wind Variable Wind from North
Gusts mph

Today
High -- | Low -- °F
--% Chance of Precip.
Yesterday
High -- | Low -- °F
Precip. -- in
Pressure 29.95 in
Visibility 10.0 miles
Clouds Scattered Clouds 2700 ft
Mostly Cloudy 3700 ft
Overcast 7000 ft
Dew Point Not available.
Humidity Not available.
Rainfall --
Snow Depth Not available.
7:09 AM 5:56 PM
Waning Crescent, 33% visible
SPECI KFLL 211721Z 16012G20KT 10SM SCT027 BKN037 OVC070 26/19 A2995 RMK AO2 T02560189
Pressure 29.95 in
Visibility 10.0 miles
Clouds Scattered Clouds 2700 ft
Mostly Cloudy 3700 ft
Overcast 7000 ft
Dew Point Not available.
Humidity Not available.
Rainfall --
Snow Depth Not available.
7:09 AM 5:56 PM
Waning Crescent, 33% visible
SPECI KFLL 211721Z 16012G20KT 10SM SCT027 BKN037 OVC070 26/19 A2995 RMK AO2 T02560189

Get Your Daily Forecast Email!

Thanks for signing up!

Be on the lookout for a verification email in your inbox.

You'll start receiving the daily forecast at 8 AM.

×

10-Day Weather Forecast

Almanac

Astronomy

Jan. 21, 2017 Rise Set
Actual Time
Civil Twilight
Nautical Twilight
Astronomical Twilight
Moon
Length of Visible Light
Length of Day
Tomorrow will be .
, % of the Moon is Illuminated

Today's Extremes

State Highs State Lows

Community

WunderPhotos

Upload Photos

1,962,540 photos uploaded!

WunderBlog® & News

Nearby

Air Quality

  Air Quality AQ Index Pollutant
Not available.

Snow Depth

Station Depth Elevation

Earthquake Activity

City Distance Mag. Time & Date
Minimum magnitude displayed is 2.5.

Coastal Water Temperatures

Place Temperature

Stations

Nearby Weather Stations

Station Location Temp. Windchill Dew Point Humidity Wind Precip. Elev Updated Type
                   

Watches & Warnings

Small Craft Advisory
Issued: 3:56 AM EST Jan. 21, 2017 – National Weather Service

... Small Craft Advisory in effect from 4 am Sunday to 7 am EST
Tuesday...

The National Weather Service in Miami has issued a Small Craft
Advisory... which is in effect from 4 am Sunday to 7 am EST
Tuesday.

* Winds and seas... south-southwest winds 20 to 25 kt on Sunday,
becoming west 25 to 30 knots with the potential for gale force
gusts Sunday night and Monday. Seas building to 10 to 12 feet in
the offshore Atlantic and 10 to 16 feet in the Gulf by Monday.

Precautionary/preparedness actions...

A Small Craft Advisory means that wind speeds of 20 to 33 knots
are expected to produce hazardous wave conditions to small craft.
Inexperienced mariners... especially those operating smaller
vessels should avoid navigating in these conditions.



Http://www.Weather.Gov/Miami